createdAt,value
2022-08-09T00:00:00.880Z,100132.34
2022-08-09T00:02:32.620Z,100132.81
2022-08-09T00:05:03.644Z,100137.06
2022-08-09T00:07:46.742Z,100131.81
2022-08-09T00:10:21.070Z,100125.13
2022-08-09T00:12:52.265Z,100116.34
2022-08-09T00:15:20.112Z,100128.16
2022-08-09T00:18:06.115Z,100122.03
2022-08-09T00:20:42.235Z,100119.97
2022-08-09T00:23:54.901Z,100119.88
2022-08-09T00:26:05.199Z,100127.50
2022-08-09T00:28:32.218Z,100120.41
2022-08-09T00:31:30.527Z,100123.66
2022-08-09T00:33:50.980Z,100124.50
2022-08-09T00:36:19.430Z,100130.22
2022-08-09T00:38:46.312Z,100127.94
2022-08-09T00:44:13.562Z,100131.97
2022-08-09T00:44:24.633Z,100132.53
2022-08-09T00:46:56.088Z,100131.84
2022-08-09T00:49:23.830Z,100127.44
2022-08-09T00:51:57.106Z,100135.97
2022-08-09T00:54:31.524Z,100134.44
2022-08-09T00:57:02.842Z,100140.13
2022-08-09T00:59:46.685Z,100139.44
2022-08-09T01:02:21.258Z,100136.31
2022-08-09T01:04:56.462Z,100140.00
2022-08-09T01:07:37.769Z,100135.75
2022-08-09T01:10:26.512Z,100141.19
2022-08-09T01:13:16.734Z,100140.06
2022-08-09T01:15:52.483Z,100137.09
2022-08-09T01:18:29.850Z,100134.41
2022-08-09T01:21:21.060Z,100134.31
2022-08-09T01:24:03.966Z,100137.00
2022-08-09T01:26:53.417Z,100146.94
2022-08-09T01:29:41.185Z,100146.09
2022-08-09T01:32:32.043Z,100153.34
2022-08-09T01:35:06.862Z,100149.78
2022-08-09T01:38:05.807Z,100148.63
2022-08-09T01:40:28.577Z,100147.78
2022-08-09T01:42:57.596Z,100142.97
2022-08-09T01:45:26.240Z,100147.94
2022-08-09T01:47:56.935Z,100152.63
2022-08-09T01:50:25.497Z,100146.34
2022-08-09T01:53:19.900Z,100143.78
2022-08-09T01:55:47.708Z,100147.63
2022-08-09T01:58:16.092Z,100142.38
2022-08-09T02:00:46.235Z,100143.09
2022-08-09T02:03:19.416Z,100146.66
2022-08-09T02:06:04.110Z,100147.47
2022-08-09T02:08:57.640Z,100139.09
2022-08-09T02:11:42.957Z,100144.63
2022-08-09T02:14:15.038Z,100142.06
2022-08-09T02:16:59.741Z,100144.94
2022-08-09T02:19:43.313Z,100154.28
2022-08-09T02:22:40.426Z,100157.13
2022-08-09T02:25:25.009Z,100161.19
2022-08-09T02:28:03.674Z,100165.59
2022-08-09T02:30:35.753Z,100164.75
2022-08-09T02:33:03.584Z,100166.44
2022-08-09T02:36:01.734Z,100166.88
2022-08-09T02:38:32.285Z,100166.44
2022-08-09T02:41:08.620Z,100163.88
2022-08-09T02:43:54.180Z,100167.84
2022-08-09T02:46:27.385Z,100170.78
2022-08-09T02:48:58.883Z,100170.78
2022-08-09T02:51:27.872Z,100163.84
2022-08-09T02:54:05.514Z,100161.28
2022-08-09T02:56:34.799Z,100160.44
2022-08-09T02:59:05.627Z,100158.44
2022-08-09T03:01:58.611Z,100159.25
2022-08-09T03:04:26.287Z,100157.81
2022-08-09T03:06:59.650Z,100159.22
2022-08-09T03:09:43.075Z,100161.78
2022-08-09T03:12:13.374Z,100154.84
2022-08-09T03:14:42.268Z,100156.78
2022-08-09T03:17:16.497Z,100152.13
2022-08-09T03:19:58.593Z,100157.53
2022-08-09T03:22:30.886Z,100160.22
2022-08-09T03:25:21.740Z,100159.47
2022-08-09T03:27:51.796Z,100161.47
2022-08-09T03:30:29.495Z,100161.59
2022-08-09T03:33:12.882Z,100165.03
2022-08-09T03:36:13.381Z,100171.78
2022-08-09T03:38:31.429Z,100182.97
2022-08-09T03:40:58.317Z,100179.50
2022-08-09T03:43:25.424Z,100192.00
2022-08-09T03:46:04.475Z,100191.56
2022-08-09T03:48:51.267Z,100192.06
2022-08-09T03:51:56.365Z,100185.25
2022-08-09T03:54:11.896Z,100192.06
2022-08-09T03:56:41.513Z,100194.75
2022-08-09T03:59:17.146Z,100198.91
2022-08-09T04:01:56.566Z,100199.50
2022-08-09T04:04:27.541Z,100200.22
2022-08-09T04:07:04.323Z,100195.81
2022-08-09T04:09:44.455Z,100207.00
2022-08-09T04:12:30.456Z,100211.38
2022-08-09T04:15:01.841Z,100202.03
2022-08-09T04:17:29.930Z,100215.13
2022-08-09T04:19:57.898Z,100205.09
2022-08-09T04:22:29.556Z,100207.50
2022-08-09T04:24:58.871Z,100210.06
2022-08-09T04:27:25.919Z,100208.66
2022-08-09T04:29:55.630Z,100215.13
2022-08-09T04:32:31.447Z,100213.41
2022-08-09T04:35:08.666Z,100221.88
2022-08-09T04:37:42.124Z,100225.53
2022-08-09T04:40:19.004Z,100229.34
2022-08-09T04:42:48.646Z,100231.78
2022-08-09T04:45:16.556Z,100234.88
2022-08-09T04:47:58.554Z,100241.97
2022-08-09T04:50:33.588Z,100240.31
2022-08-09T04:53:02.510Z,100242.50
2022-08-09T04:55:38.949Z,100249.06
2022-08-09T04:58:17.063Z,100250.38
2022-08-09T05:00:43.567Z,100257.44
2022-08-09T05:03:30.214Z,100256.34
2022-08-09T05:06:07.091Z,100256.38
2022-08-09T05:08:35.234Z,100257.00
2022-08-09T05:11:02.795Z,100257.28
2022-08-09T05:13:32.876Z,100259.91
2022-08-09T05:16:00.528Z,100258.31
2022-08-09T05:18:42.539Z,100250.72
2022-08-09T05:21:23.158Z,100212.06
2022-08-09T05:23:58.487Z,100190.09
2022-08-09T05:26:36.913Z,100185.41
2022-08-09T05:29:21.192Z,100181.09
2022-08-09T05:31:57.435Z,100185.34
2022-08-09T05:34:34.333Z,100180.72
2022-08-09T05:37:06.118Z,100174.28
2022-08-09T05:39:42.856Z,100170.19
2022-08-09T05:42:17.393Z,100176.47
2022-08-09T05:44:50.786Z,100177.66
2022-08-09T05:47:18.295Z,100184.44
2022-08-09T05:50:25.854Z,100188.16
2022-08-09T05:52:31.959Z,100194.22
2022-08-09T05:55:06.748Z,100192.78
2022-08-09T05:57:55.937Z,100204.78
2022-08-09T06:00:29.960Z,100198.50
2022-08-09T06:02:58.084Z,100202.25
2022-08-09T06:05:50.549Z,100205.03
2022-08-09T06:08:13.203Z,100204.16
2022-08-09T06:10:39.896Z,100206.50
2022-08-09T06:13:20.362Z,100217.19
2022-08-09T06:15:52.376Z,100215.97
2022-08-09T06:18:23.996Z,100211.88
2022-08-09T06:20:56.980Z,100215.44
2022-08-09T06:23:55.185Z,100221.38
2022-08-09T06:26:21.103Z,100216.59
2022-08-09T06:28:59.383Z,100220.88
2022-08-09T06:31:31.273Z,100223.75
2022-08-09T06:34:06.777Z,100217.31
2022-08-09T06:36:35.144Z,100218.34
2022-08-09T06:39:02.687Z,100222.97
2022-08-09T06:41:58.855Z,100225.69
2022-08-09T06:44:22.494Z,100209.38
2022-08-09T06:46:55.491Z,100231.59
2022-08-09T06:49:44.860Z,100228.06
2022-08-09T06:52:10.303Z,100225.88
2022-08-09T06:54:38.610Z,100224.66
2022-08-09T06:57:05.874Z,100220.81
2022-08-09T07:00:55.236Z,100228.94
2022-08-09T07:02:21.975Z,100229.28
2022-08-09T07:04:56.067Z,100225.69
2022-08-09T07:07:59.553Z,100220.25
2022-08-09T07:10:22.303Z,100231.44
2022-08-09T07:12:57.577Z,100224.63
2022-08-09T07:16:36.175Z,100227.31
2022-08-09T07:18:14.320Z,100223.22
2022-08-09T07:20:43.753Z,100228.63
2022-08-09T07:23:18.963Z,100227.56
2022-08-09T07:25:52.113Z,100228.19
2022-08-09T07:28:26.273Z,100221.00
2022-08-09T07:30:55.359Z,100224.00
2022-08-09T07:33:21.851Z,100221.91
2022-08-09T07:35:53.460Z,100216.91
2022-08-09T07:38:20.263Z,100219.06
2022-08-09T07:41:08.241Z,100224.59
2022-08-09T07:43:49.827Z,100215.13
2022-08-09T07:46:19.199Z,100222.03
2022-08-09T07:48:46.674Z,100216.94
2022-08-09T07:52:04.418Z,100216.09
2022-08-09T07:54:12.266Z,100218.09
2022-08-09T07:56:45.102Z,100209.09
2022-08-09T07:59:33.600Z,100201.97
2022-08-09T08:02:04.989Z,100205.44
2022-08-09T08:04:32.973Z,100199.03
2022-08-09T08:07:14.896Z,100195.28
2022-08-09T08:10:04.533Z,100208.75
2022-08-09T08:12:42.568Z,100199.53
2022-08-09T08:15:11.363Z,100196.59
2022-08-09T08:17:53.884Z,100201.28
2022-08-09T08:20:28.747Z,100198.25
2022-08-09T08:23:01.626Z,100205.38
2022-08-09T08:25:44.682Z,100199.97
2022-08-09T08:28:15.280Z,100206.16
2022-08-09T08:30:44.193Z,100204.75
2022-08-09T08:33:11.635Z,100204.03
2022-08-09T08:35:58.142Z,100196.06
2022-08-09T08:38:25.588Z,100198.94
2022-08-09T08:40:56.465Z,100199.38
2022-08-09T08:43:24.406Z,100205.59
2022-08-09T08:46:03.770Z,100207.34
2022-08-09T08:48:36.753Z,100195.94
2022-08-09T08:51:04.936Z,100208.66
2022-08-09T08:53:37.165Z,100200.72
2022-08-09T08:56:05.386Z,100198.28
2022-08-09T08:58:33.143Z,100201.28
2022-08-09T09:01:08.681Z,100205.59
2022-08-09T09:03:37.557Z,100206.06
2022-08-09T09:06:05.899Z,100204.81
2022-08-09T09:08:40.382Z,100205.72
2022-08-09T09:11:08.969Z,100209.75
2022-08-09T09:13:54.863Z,100205.81
2022-08-09T09:16:29.880Z,100206.72
2022-08-09T09:22:08.033Z,100200.00
2022-08-09T09:24:45.123Z,100203.44
2022-08-09T09:27:47.260Z,100203.03
2022-08-09T09:33:15.990Z,100199.25
2022-08-09T09:36:01.703Z,100200.91
2022-08-09T09:38:45.207Z,100211.84
2022-08-09T09:41:28.059Z,100201.50
2022-08-09T09:44:11.420Z,100209.03
2022-08-09T09:46:51.679Z,100196.91
2022-08-09T09:49:31.695Z,100210.41
2022-08-09T09:52:36.061Z,100201.91
2022-08-09T09:55:16.112Z,100203.53
2022-08-09T09:58:16.301Z,100193.38
2022-08-09T10:00:59.425Z,100202.00
2022-08-09T10:03:58.103Z,100199.94
2022-08-09T10:06:53.887Z,100197.63
2022-08-09T10:09:23.175Z,100196.63
2022-08-09T10:12:14.793Z,100193.19
2022-08-09T10:14:49.289Z,100187.91
2022-08-09T10:17:51.050Z,100180.16
2022-08-09T10:20:32.082Z,100190.22
2022-08-09T10:23:13.660Z,100180.03
2022-08-09T10:26:06.377Z,100169.78
2022-08-09T10:28:33.970Z,100173.41
2022-08-09T10:34:11.050Z,100169.38
2022-08-09T10:36:36.107Z,100170.66
2022-08-09T10:39:03.304Z,100159.09
2022-08-09T10:41:32.849Z,100164.56
2022-08-09T10:44:03.953Z,100163.09
2022-08-09T10:47:00.981Z,100160.91
2022-08-09T10:49:50.921Z,100163.38
2022-08-09T10:53:00.084Z,100147.56
2022-08-09T10:55:35.746Z,100153.56
2022-08-09T10:58:33.900Z,100149.50
2022-08-09T11:03:06.697Z,100155.53
2022-08-09T11:04:28.146Z,100151.31
2022-08-09T11:06:59.915Z,100161.50
2022-08-09T11:09:47.364Z,100149.84
2022-08-09T11:12:17.422Z,100139.34
2022-08-09T11:14:57.521Z,100142.63
2022-08-09T11:17:27.281Z,100152.22
2022-08-09T11:20:19.736Z,100151.84
2022-08-09T11:22:55.526Z,100141.22
2022-08-09T11:25:44.788Z,100138.31
2022-08-09T11:28:33.928Z,100147.06
2022-08-09T11:31:36.538Z,100145.03
2022-08-09T11:34:09.882Z,100136.84
2022-08-09T11:36:43.071Z,100141.34
2022-08-09T11:39:11.624Z,100145.94
2022-08-09T11:41:40.682Z,100134.91
2022-08-09T11:44:08.289Z,100133.06
2022-08-09T11:47:00.728Z,100131.06
2022-08-09T11:50:57.034Z,100128.25
2022-08-09T11:53:58.873Z,100130.59
2022-08-09T11:55:53.735Z,100126.78
2022-08-09T11:58:33.219Z,100122.66
2022-08-09T12:01:08.272Z,100118.09
2022-08-09T12:03:55.182Z,100131.69
2022-08-09T12:06:26.570Z,100114.94
2022-08-09T12:09:01.182Z,100115.84
2022-08-09T12:11:29.126Z,100117.53
2022-08-09T12:14:08.502Z,100117.03
2022-08-09T12:16:40.377Z,100114.88
2022-08-09T12:19:09.633Z,100119.91
2022-08-09T12:21:48.417Z,100105.91
2022-08-09T12:24:24.518Z,100102.31
2022-08-09T12:29:10.493Z,100091.47
2022-08-09T12:30:01.629Z,100092.06
2022-08-09T12:32:40.899Z,100088.47
2022-08-09T12:35:12.423Z,100097.09
2022-08-09T12:37:49.777Z,100081.00
2022-08-09T12:40:18.628Z,100078.03
2022-08-09T12:42:46.491Z,100080.97
2022-08-09T12:45:32.062Z,100079.44
2022-08-09T12:48:03.355Z,100080.97
2022-08-09T12:50:30.777Z,100075.09
2022-08-09T12:53:17.722Z,100067.38
2022-08-09T12:56:11.788Z,100064.72
2022-08-09T12:58:30.210Z,100051.41
2022-08-09T13:00:58.465Z,100056.75
2022-08-09T13:03:53.860Z,100064.69
2022-08-09T13:06:45.564Z,100055.34
2022-08-09T13:09:12.684Z,100066.72
2022-08-09T13:11:42.817Z,100056.53
2022-08-09T13:14:42.753Z,100060.03
2022-08-09T13:17:33.669Z,100058.59
2022-08-09T13:20:14.407Z,100052.28
2022-08-09T13:23:01.048Z,100047.34
2022-08-09T13:25:43.015Z,100043.06
2022-08-09T13:28:33.996Z,100032.47
2022-08-09T13:32:17.510Z,100035.31
2022-08-09T13:34:01.857Z,100033.91
2022-08-09T13:36:41.414Z,100031.25
2022-08-09T13:41:19.295Z,100030.97
2022-08-09T13:42:02.661Z,100028.88
2022-08-09T13:44:30.549Z,100028.38
2022-08-09T13:47:26.575Z,100029.84
2022-08-09T13:49:57.346Z,100040.25
2022-08-09T13:52:28.904Z,100031.44
2022-08-09T13:55:00.978Z,100028.38
2022-08-09T13:57:36.748Z,100025.53
2022-08-09T14:00:13.379Z,100023.75
2022-08-09T14:03:04.171Z,100019.41
2022-08-09T14:05:56.419Z,100020.16
2022-08-09T14:08:17.807Z,100015.72
2022-08-09T14:10:50.428Z,100014.78
2022-08-09T14:13:28.420Z,100019.88
2022-08-09T14:16:10.819Z,100015.53
2022-08-09T14:18:45.068Z,100015.69
2022-08-09T14:21:17.769Z,100017.69
2022-08-09T14:23:55.414Z,100013.41
2022-08-09T14:26:32.825Z,100010.41
2022-08-09T14:30:03.904Z,100001.06
2022-08-09T14:31:58.227Z,100007.56
2022-08-09T14:34:33.009Z,100010.53
2022-08-09T14:37:06.658Z,100007.00
2022-08-09T14:39:45.395Z,100011.25
2022-08-09T14:42:31.341Z,100010.06
2022-08-09T14:46:38.894Z,100004.72
2022-08-09T14:47:56.968Z,99994.88
2022-08-09T14:50:27.823Z,100002.50
2022-08-09T14:52:54.596Z,100014.56
2022-08-09T14:55:21.484Z,100002.56
2022-08-09T14:57:49.046Z,100001.91
2022-08-09T15:00:16.581Z,100004.69
2022-08-09T15:02:43.013Z,100000.22
2022-08-09T15:05:16.892Z,100002.84
2022-08-09T15:07:45.528Z,99994.06
2022-08-09T15:10:21.737Z,99993.16
2022-08-09T15:12:55.852Z,99994.69
2022-08-09T15:15:24.781Z,100004.50
2022-08-09T15:17:55.910Z,99990.34
2022-08-09T15:21:57.536Z,100000.72
2022-08-09T15:24:02.659Z,100002.59
2022-08-09T15:25:58.155Z,99993.50
2022-08-09T15:28:28.161Z,99988.72
2022-08-09T15:31:07.456Z,99992.06
2022-08-09T15:34:17.546Z,99991.81
2022-08-09T15:36:28.794Z,99988.03
2022-08-09T15:38:58.670Z,99983.97
2022-08-09T15:41:31.174Z,99982.66
2022-08-09T15:44:02.027Z,99979.47
2022-08-09T15:46:33.452Z,99971.66
2022-08-09T15:49:21.860Z,99976.19
2022-08-09T15:52:03.528Z,99964.69
2022-08-09T15:54:46.414Z,99952.66
2022-08-09T15:57:34.581Z,99954.28
2022-08-09T16:00:08.312Z,99957.44
2022-08-09T16:02:35.945Z,99957.19
2022-08-09T16:05:03.935Z,99953.81
2022-08-09T16:07:31.239Z,99955.06
2022-08-09T16:10:17.009Z,99959.50
2022-08-09T16:12:56.781Z,99963.19
2022-08-09T16:16:10.119Z,99960.75
2022-08-09T16:18:11.401Z,99969.69
2022-08-09T16:20:38.738Z,99965.41
2022-08-09T16:23:08.599Z,99966.03
2022-08-09T16:25:40.650Z,99961.50
2022-08-09T16:28:07.543Z,99968.78
2022-08-09T16:30:38.451Z,99964.88
2022-08-09T16:33:11.452Z,99969.59
2022-08-09T16:35:56.776Z,99965.59
2022-08-09T16:38:25.057Z,99964.78
2022-08-09T16:40:52.030Z,99969.44
2022-08-09T16:43:18.589Z,99953.53
2022-08-09T16:45:48.083Z,99960.59
2022-08-09T16:48:41.093Z,99955.56
2022-08-09T16:51:07.470Z,99953.81
2022-08-09T16:53:35.655Z,99952.94
2022-08-09T16:56:09.750Z,99952.16
2022-08-09T16:58:37.137Z,99955.56
2022-08-09T17:01:07.822Z,99950.19
2022-08-09T17:03:36.234Z,99952.56
2022-08-09T17:06:28.462Z,99958.13
2022-08-09T17:09:03.069Z,99959.16
2022-08-09T17:11:41.644Z,99965.50
2022-08-09T17:14:25.447Z,99963.59
2022-08-09T17:16:54.056Z,99963.19
2022-08-09T17:19:21.785Z,99961.97
2022-08-09T17:21:54.466Z,99970.09
2022-08-09T17:24:30.374Z,99959.63
2022-08-09T17:26:57.616Z,99975.78
2022-08-09T17:29:25.477Z,99975.75
2022-08-09T17:32:00.867Z,99983.00
2022-08-09T17:35:10.764Z,99980.28
2022-08-09T17:37:20.026Z,99974.06
2022-08-09T17:39:53.524Z,99989.72
2022-08-09T17:42:41.119Z,99974.03
2022-08-09T17:45:23.783Z,99975.00
2022-08-09T17:47:54.920Z,99981.72
2022-08-09T17:50:36.197Z,99988.72
2022-08-09T17:53:04.834Z,99983.56
2022-08-09T17:55:48.698Z,99983.09
2022-08-09T17:58:18.814Z,99994.97
2022-08-09T18:00:48.291Z,99976.41
2022-08-09T18:03:15.462Z,99989.44
2022-08-09T18:05:44.778Z,99987.03
2022-08-09T18:08:13.229Z,99992.31
2022-08-09T18:10:46.002Z,99987.72
2022-08-09T18:13:40.194Z,99999.47
2022-08-09T18:16:09.217Z,100003.47
2022-08-09T18:18:42.893Z,100002.84
2022-08-09T18:21:21.423Z,100005.06
2022-08-09T18:24:10.481Z,100006.47
2022-08-09T18:26:38.254Z,100009.03
2022-08-09T18:30:39.441Z,100003.91
2022-08-09T18:32:00.926Z,100013.25
2022-08-09T18:34:31.501Z,100012.63
2022-08-09T18:36:58.403Z,100011.00
2022-08-09T18:39:25.639Z,100011.56
2022-08-09T18:41:58.921Z,100021.16
2022-08-09T18:44:26.005Z,100016.44
2022-08-09T18:47:08.449Z,100033.81
2022-08-09T18:49:43.075Z,100031.19
2022-08-09T18:52:14.175Z,100036.53
2022-08-09T18:54:52.650Z,100039.75
2022-08-09T18:57:22.359Z,100037.91
2022-08-09T18:59:55.640Z,100046.75
2022-08-09T19:02:30.489Z,100050.78
2022-08-09T19:05:03.919Z,100058.69
2022-08-09T19:07:43.378Z,100055.94
2022-08-09T19:10:29.245Z,100061.06
2022-08-09T19:13:20.595Z,100064.47
2022-08-09T19:15:52.384Z,100075.50
2022-08-09T19:18:36.615Z,100077.56
2022-08-09T19:21:10.299Z,100070.84
2022-08-09T19:24:36.261Z,100080.19
2022-08-09T19:26:31.229Z,100082.34
2022-08-09T19:29:15.343Z,100092.50
2022-08-09T19:31:49.427Z,100082.81
2022-08-09T19:34:23.027Z,100074.38
2022-08-09T19:36:55.463Z,100079.84
2022-08-09T19:39:43.900Z,100084.94
2022-08-09T19:42:15.116Z,100096.75
2022-08-09T19:44:55.766Z,100101.41
2022-08-09T19:47:23.746Z,100099.28
2022-08-09T19:50:10.201Z,100100.97
2022-08-09T19:52:49.777Z,100098.44
2022-08-09T19:55:31.092Z,100105.63
2022-08-09T19:58:16.091Z,100094.22
2022-08-09T20:00:45.227Z,100105.53
2022-08-09T20:04:18.522Z,100096.88
2022-08-09T20:06:03.298Z,100105.91
2022-08-09T20:08:34.899Z,100100.44
2022-08-09T20:11:02.714Z,100108.00
2022-08-09T20:13:37.119Z,100114.94
2022-08-09T20:16:36.655Z,100110.91
2022-08-09T20:19:42.400Z,100112.56
2022-08-09T20:21:55.246Z,100115.53
2022-08-09T20:24:29.838Z,100112.53
2022-08-09T20:27:05.625Z,100123.41
2022-08-09T20:29:39.285Z,100117.88
2022-08-09T20:32:30.923Z,100117.63
2022-08-09T20:35:00.035Z,100126.25
2022-08-09T20:37:37.955Z,100125.78
2022-08-09T20:40:27.217Z,100118.59
2022-08-09T20:42:59.967Z,100128.28
2022-08-09T20:46:01.659Z,100130.81
2022-08-09T20:48:21.397Z,100137.06
2022-08-09T20:50:50.322Z,100129.88
2022-08-09T20:53:35.733Z,100140.00
2022-08-09T20:56:08.986Z,100137.25
2022-08-09T20:58:36.077Z,100144.16
2022-08-09T21:01:32.538Z,100137.34
2022-08-09T21:05:48.672Z,100145.69
2022-08-09T21:06:42.487Z,100138.09
2022-08-09T21:09:11.679Z,100128.53
2022-08-09T21:14:26.761Z,100130.66
2022-08-09T21:16:57.585Z,100136.56
2022-08-09T21:20:18.680Z,100138.34
2022-08-09T21:22:36.257Z,100132.97
2022-08-09T21:25:17.988Z,100132.31
2022-08-09T21:28:00.875Z,100122.69
2022-08-09T21:30:27.715Z,100137.06
2022-08-09T21:32:54.370Z,100130.66
2022-08-09T21:35:21.774Z,100119.69
2022-08-09T21:37:58.784Z,100127.13
2022-08-09T21:40:30.421Z,100134.59
2022-08-09T21:42:58.765Z,100130.66
2022-08-09T21:45:25.963Z,100132.63
2022-08-09T21:47:53.767Z,100138.75
2022-08-09T21:50:35.786Z,100131.34
2022-08-09T21:53:23.874Z,100143.84
2022-08-09T21:55:53.843Z,100136.16
2022-08-09T21:58:20.456Z,100140.66
2022-08-09T22:00:48.597Z,100132.09
2022-08-09T22:03:19.723Z,100131.34
2022-08-09T22:05:52.779Z,100135.22
2022-08-09T22:08:24.769Z,100134.34
2022-08-09T22:11:00.839Z,100135.13
2022-08-09T22:13:42.256Z,100130.69
2022-08-09T22:16:12.132Z,100122.78
2022-08-09T22:18:52.258Z,100130.69
2022-08-09T22:21:24.257Z,100133.03
2022-08-09T22:23:58.957Z,100127.31
2022-08-09T22:26:35.088Z,100130.69
2022-08-09T22:29:07.438Z,100130.97
2022-08-09T22:31:53.168Z,100129.16
2022-08-09T22:34:25.663Z,100129.47
2022-08-09T22:36:53.893Z,100132.94
2022-08-09T22:39:56.386Z,100132.13
2022-08-09T22:42:20.752Z,100136.38
2022-08-09T22:44:48.545Z,100130.19
2022-08-09T22:48:11.356Z,100133.28
2022-08-09T22:50:13.425Z,100133.94
2022-08-09T22:52:40.046Z,100131.31
2022-08-09T22:55:08.459Z,100134.03
2022-08-09T22:57:59.919Z,100130.47
2022-08-09T23:00:29.320Z,100135.66
2022-08-09T23:02:56.496Z,100141.66
2022-08-09T23:05:23.161Z,100136.13
2022-08-09T23:08:27.437Z,100143.09
2022-08-09T23:10:56.424Z,100141.78
2022-08-09T23:13:23.138Z,100140.13
2022-08-09T23:16:03.050Z,100140.06
2022-08-09T23:18:31.334Z,100145.25
2022-08-09T23:20:57.870Z,100143.25
2022-08-09T23:23:24.430Z,100145.63
2022-08-09T23:25:51.089Z,100139.50
2022-08-09T23:28:17.729Z,100133.38
2022-08-09T23:30:52.128Z,100133.56
2022-08-09T23:33:22.865Z,100139.88
2022-08-09T23:36:06.183Z,100140.81
2022-08-09T23:38:34.706Z,100140.63
2022-08-09T23:41:01.810Z,100143.94
2022-08-09T23:43:28.298Z,100130.47
2022-08-09T23:45:54.915Z,100144.50
2022-08-09T23:48:21.382Z,100146.56
2022-08-09T23:50:47.955Z,100143.38
2022-08-09T23:53:14.599Z,100143.84
2022-08-09T23:55:47.298Z,100147.81
2022-08-09T23:58:26.222Z,100139.34
